createdAt,value
2019-01-30T00:00:23.089Z,56.38
2019-01-30T00:01:03.712Z,56.48
2019-01-30T00:01:44.353Z,56.48
2019-01-30T00:02:24.960Z,56.48
2019-01-30T00:03:05.584Z,56.38
2019-01-30T00:03:46.205Z,56.57
2019-01-30T00:04:26.814Z,56.38
2019-01-30T00:05:07.422Z,56.19
2019-01-30T00:05:48.036Z,56.19
2019-01-30T00:06:28.652Z,55.8
2019-01-30T00:07:09.270Z,56.19
2019-01-30T00:07:49.884Z,56
2019-01-30T00:08:30.504Z,56
2019-01-30T00:09:11.104Z,55.9
2019-01-30T00:09:51.712Z,55.8
2019-01-30T00:10:32.302Z,56.19
2019-01-30T00:11:12.908Z,55.71
2019-01-30T00:11:53.506Z,55.9
2019-01-30T00:12:34.110Z,55.9
2019-01-30T00:13:14.737Z,55.9
2019-01-30T00:13:55.334Z,56
2019-01-30T00:14:35.950Z,55.9
2019-01-30T00:15:16.556Z,56.09
2019-01-30T00:15:57.162Z,56
2019-01-30T00:16:37.782Z,56.09
2019-01-30T00:17:18.397Z,55.9
2019-01-30T00:17:59.024Z,56.38
2019-01-30T00:18:39.648Z,56.19
2019-01-30T00:19:20.257Z,56.19
2019-01-30T00:20:00.867Z,56.19
2019-01-30T00:20:41.472Z,56.29
2019-01-30T00:21:22.068Z,56.19
2019-01-30T00:22:02.657Z,56
2019-01-30T00:22:43.266Z,56.29
2019-01-30T00:23:23.866Z,56.19
2019-01-30T00:24:04.468Z,56.09
2019-01-30T00:24:45.083Z,56
2019-01-30T00:25:25.688Z,56.19
2019-01-30T00:26:06.285Z,55.8
2019-01-30T00:26:46.912Z,56.29
2019-01-30T00:27:27.528Z,56.29
2019-01-30T00:28:08.137Z,56.19
2019-01-30T00:28:48.748Z,56.09
2019-01-30T00:29:29.368Z,56.09
2019-01-30T00:30:10.014Z,56.29
2019-01-30T00:30:50.613Z,55.9
2019-01-30T00:31:31.230Z,56.38
2019-01-30T00:32:11.857Z,56.38
2019-01-30T00:32:52.488Z,56.38
2019-01-30T00:33:33.104Z,56.29
2019-01-30T00:34:13.712Z,56.29
2019-01-30T00:34:54.326Z,56.19
2019-01-30T00:35:34.946Z,56.09
2019-01-30T00:36:15.596Z,56.19
2019-01-30T00:36:56.197Z,56.19
2019-01-30T00:37:36.816Z,56.19
2019-01-30T00:38:17.431Z,56.29
2019-01-30T00:38:58.032Z,56.29
2019-01-30T00:39:38.634Z,56.57
2019-01-30T00:40:19.253Z,56
2019-01-30T00:40:59.943Z,55.9
2019-01-30T00:41:40.581Z,56.09
2019-01-30T00:42:21.202Z,56.19
2019-01-30T00:43:01.806Z,56
2019-01-30T00:43:42.434Z,56
2019-01-30T00:44:23.098Z,56.19
2019-01-30T00:45:03.703Z,56.38
2019-01-30T00:45:44.317Z,56.38
2019-01-30T00:46:24.923Z,56.09
2019-01-30T00:47:15.241Z,56.09
2019-01-30T00:47:46.175Z,56.38
2019-01-30T00:48:26.861Z,56.09
2019-01-30T00:49:07.479Z,55.62
2019-01-30T00:49:48.103Z,56.09
2019-01-30T00:50:28.742Z,55.8
2019-01-30T00:51:09.398Z,56.29
2019-01-30T00:51:50.031Z,56.38
2019-01-30T00:52:30.644Z,56.09
2019-01-30T00:53:11.284Z,55.71
2019-01-30T00:53:51.905Z,55.8
2019-01-30T00:54:32.524Z,56.19
2019-01-30T00:55:13.126Z,56.09
2019-01-30T00:55:53.745Z,56.29
2019-01-30T00:56:34.343Z,56.09
2019-01-30T00:57:15.022Z,56
2019-01-30T00:57:55.680Z,55.71
2019-01-30T00:58:36.298Z,56.09
2019-01-30T00:59:16.909Z,56.19
2019-01-30T00:59:57.498Z,55.71
2019-01-30T01:00:38.115Z,56
2019-01-30T01:01:18.747Z,56.09
2019-01-30T01:01:59.377Z,55.8
2019-01-30T01:02:39.990Z,55.8
2019-01-30T01:03:20.622Z,55.8
2019-01-30T01:04:01.219Z,56.09
2019-01-30T01:04:41.829Z,56.19
2019-01-30T01:05:22.446Z,55.62
2019-01-30T01:06:03.049Z,56.09
2019-01-30T01:06:43.678Z,56.29
2019-01-30T01:07:24.283Z,56
2019-01-30T01:08:04.899Z,55.8
2019-01-30T01:08:45.533Z,55.71
2019-01-30T01:09:26.178Z,55.42
2019-01-30T01:10:06.791Z,55.62
2019-01-30T01:10:47.407Z,55.33
2019-01-30T01:11:28.015Z,55.62
2019-01-30T01:12:08.622Z,55.62
2019-01-30T01:12:49.255Z,56
2019-01-30T01:13:29.917Z,55.71
2019-01-30T01:14:10.540Z,55.8
2019-01-30T01:14:51.150Z,55.62
2019-01-30T01:15:31.781Z,55.8
2019-01-30T01:16:12.437Z,55.62
2019-01-30T01:16:53.039Z,55.62
2019-01-30T01:17:33.629Z,55.62
2019-01-30T01:18:14.261Z,55.62
2019-01-30T01:18:54.873Z,55.71
2019-01-30T01:19:35.485Z,55.62
2019-01-30T01:20:16.092Z,55.9
2019-01-30T01:20:56.719Z,55.33
2019-01-30T01:21:37.344Z,55.71
2019-01-30T01:22:17.932Z,55.8
2019-01-30T01:22:58.559Z,55.52
2019-01-30T01:23:39.164Z,55.62
2019-01-30T01:24:19.784Z,55.71
2019-01-30T01:25:00.398Z,55.71
2019-01-30T01:25:40.999Z,55.71
2019-01-30T01:26:21.595Z,55.71
2019-01-30T01:27:02.202Z,55.52
2019-01-30T01:27:42.801Z,55.71
2019-01-30T01:28:23.411Z,55.71
2019-01-30T01:29:04.023Z,55.71
2019-01-30T01:29:44.668Z,55.71
2019-01-30T01:30:25.770Z,55.8
2019-01-30T01:31:05.909Z,55.71
2019-01-30T01:31:46.514Z,55.62
2019-01-30T01:32:27.123Z,55.62
2019-01-30T01:33:07.730Z,55.8
2019-01-30T01:33:48.384Z,55.71
2019-01-30T01:34:28.935Z,55.62
2019-01-30T01:35:09.539Z,55.71
2019-01-30T01:35:50.153Z,55.71
2019-01-30T01:36:30.801Z,55.71
2019-01-30T01:37:11.445Z,55.71
2019-01-30T01:37:52.047Z,55.62
2019-01-30T01:38:32.663Z,55.62
2019-01-30T01:39:13.285Z,55.71
2019-01-30T01:39:53.895Z,55.62
2019-01-30T01:40:34.549Z,55.62
2019-01-30T01:41:15.155Z,55.62
2019-01-30T01:41:55.755Z,55.71
2019-01-30T01:42:36.355Z,55.33
2019-01-30T01:43:16.958Z,55.71
2019-01-30T01:43:57.563Z,55.52
2019-01-30T01:44:38.173Z,55.62
2019-01-30T01:45:18.801Z,55.62
2019-01-30T01:45:59.433Z,55.62
2019-01-30T01:46:40.064Z,55.62
2019-01-30T01:47:20.691Z,55.71
2019-01-30T01:48:01.331Z,55.52
2019-01-30T01:48:41.935Z,56
2019-01-30T01:49:22.551Z,55.71
2019-01-30T01:50:03.181Z,55.8
2019-01-30T01:50:43.787Z,56
2019-01-30T01:51:24.399Z,55.9
2019-01-30T01:52:04.993Z,55.9
2019-01-30T01:52:45.589Z,55.9
2019-01-30T01:53:26.193Z,55.23
2019-01-30T01:54:06.803Z,55.9
2019-01-30T01:54:47.443Z,56
2019-01-30T01:55:28.059Z,55.71
2019-01-30T01:56:08.687Z,55.62
2019-01-30T01:56:49.323Z,55.8
2019-01-30T01:57:29.939Z,55.9
2019-01-30T01:58:10.545Z,55.8
2019-01-30T01:58:51.157Z,55.23
2019-01-30T01:59:31.795Z,55.9
2019-01-30T02:00:12.414Z,55.9
2019-01-30T02:00:53.105Z,55.52
2019-01-30T02:01:33.714Z,55.52
2019-01-30T02:02:14.333Z,56
2019-01-30T02:02:54.933Z,55.9
2019-01-30T02:03:35.576Z,55.52
2019-01-30T02:04:16.189Z,55.71
2019-01-30T02:04:56.811Z,55.9
2019-01-30T02:05:37.431Z,55.9
2019-01-30T02:06:18.055Z,55.52
2019-01-30T02:06:58.674Z,55.9
2019-01-30T02:07:39.291Z,55.8
2019-01-30T02:08:19.921Z,55.52
2019-01-30T02:09:00.533Z,55.9
2019-01-30T02:09:41.145Z,55.8
2019-01-30T02:10:21.763Z,55.71
2019-01-30T02:11:02.365Z,55.62
2019-01-30T02:11:42.981Z,55.62
2019-01-30T02:12:23.587Z,55.62
2019-01-30T02:13:04.198Z,55.52
2019-01-30T02:13:44.829Z,55.8
2019-01-30T02:14:25.439Z,55.71
2019-01-30T02:15:06.043Z,55.42
2019-01-30T02:15:46.669Z,55.62
2019-01-30T02:16:27.263Z,55.62
2019-01-30T02:17:07.901Z,55.62
2019-01-30T02:17:48.531Z,55.71
2019-01-30T02:18:29.138Z,55.71
2019-01-30T02:19:09.757Z,55.8
2019-01-30T02:19:50.393Z,55.62
2019-01-30T02:20:30.986Z,55.62
2019-01-30T02:21:11.603Z,55.62
2019-01-30T02:21:52.209Z,55.52
2019-01-30T02:22:32.829Z,55.62
2019-01-30T02:23:13.429Z,55.52
2019-01-30T02:23:54.035Z,55.8
2019-01-30T02:24:34.645Z,55.9
2019-01-30T02:25:15.280Z,55.8
2019-01-30T02:25:55.869Z,55.33
2019-01-30T02:26:36.458Z,55.23
2019-01-30T02:27:17.064Z,55.42
2019-01-30T02:27:57.665Z,55.8
2019-01-30T02:28:38.275Z,56
2019-01-30T02:29:18.887Z,55.62
2019-01-30T02:29:59.502Z,55.9
2019-01-30T02:30:46.970Z,55.42
2019-01-30T02:31:20.707Z,55.9
2019-01-30T02:32:01.315Z,55.23
2019-01-30T02:32:41.915Z,55.42
2019-01-30T02:33:22.529Z,55.62
2019-01-30T02:34:03.201Z,55.33
2019-01-30T02:34:43.861Z,55.33
2019-01-30T02:35:24.476Z,55.33
2019-01-30T02:36:05.092Z,55.23
2019-01-30T02:36:45.717Z,56
2019-01-30T02:37:26.313Z,55.23
2019-01-30T02:38:06.941Z,55.42
2019-01-30T02:38:47.559Z,55.23
2019-01-30T02:39:28.207Z,55.23
2019-01-30T02:40:08.820Z,55.42
2019-01-30T02:40:49.514Z,55.23
2019-01-30T02:41:30.037Z,55.33
2019-01-30T02:42:10.665Z,55.42
2019-01-30T02:42:51.301Z,55.33
2019-01-30T02:43:31.911Z,54.85
2019-01-30T02:44:12.547Z,55.62
2019-01-30T02:44:53.161Z,55.42
2019-01-30T02:45:33.759Z,55.9
2019-01-30T02:46:14.373Z,55.9
2019-01-30T02:46:54.998Z,55.42
2019-01-30T02:47:35.611Z,55.23
2019-01-30T02:48:16.217Z,55.52
2019-01-30T02:48:56.845Z,55.52
2019-01-30T02:49:37.463Z,55.42
2019-01-30T02:50:18.067Z,55.52
2019-01-30T02:50:58.663Z,55.33
2019-01-30T02:51:39.283Z,55.33
2019-01-30T02:52:19.894Z,55.42
2019-01-30T02:53:00.523Z,55.42
2019-01-30T02:53:41.149Z,55.42
2019-01-30T02:54:21.781Z,55.52
2019-01-30T02:55:02.401Z,55.42
2019-01-30T02:55:42.995Z,55.13
2019-01-30T02:56:23.611Z,55.42
2019-01-30T02:57:04.244Z,55.42
2019-01-30T02:57:44.847Z,55.52
2019-01-30T02:58:25.463Z,55.52
2019-01-30T02:59:06.065Z,55.33
2019-01-30T02:59:46.677Z,55.13
2019-01-30T03:00:27.295Z,55.52
2019-01-30T03:01:07.909Z,55.42
2019-01-30T03:01:48.533Z,55.13
2019-01-30T03:02:29.159Z,55.52
2019-01-30T03:03:09.765Z,55.33
2019-01-30T03:03:50.380Z,55.13
2019-01-30T03:04:31.011Z,55.33
2019-01-30T03:05:11.641Z,55.23
2019-01-30T03:05:52.289Z,55.33
2019-01-30T03:06:32.913Z,54.85
2019-01-30T03:07:13.525Z,55.52
2019-01-30T03:07:54.149Z,55.42
2019-01-30T03:08:34.759Z,55.62
2019-01-30T03:09:15.355Z,55.04
2019-01-30T03:09:55.970Z,54.94
2019-01-30T03:10:36.594Z,55.04
2019-01-30T03:11:17.217Z,55.52
2019-01-30T03:11:57.857Z,55.52
2019-01-30T03:12:38.465Z,55.42
2019-01-30T03:13:19.101Z,55.13
2019-01-30T03:13:59.715Z,55.23
2019-01-30T03:14:40.315Z,55.62
2019-01-30T03:15:20.940Z,55.23
2019-01-30T03:16:01.555Z,55.52
2019-01-30T03:16:42.159Z,55.52
2019-01-30T03:17:22.775Z,55.23
2019-01-30T03:18:03.383Z,55.23
2019-01-30T03:18:44.041Z,55.04
2019-01-30T03:19:24.659Z,55.52
2019-01-30T03:20:05.267Z,55.42
2019-01-30T03:20:45.888Z,55.42
2019-01-30T03:21:26.481Z,55.52
2019-01-30T03:22:07.091Z,55.23
2019-01-30T03:22:47.727Z,55.52
2019-01-30T03:23:28.347Z,55.23
2019-01-30T03:24:08.963Z,55.13
2019-01-30T03:24:49.598Z,55.42
2019-01-30T03:25:30.170Z,55.42
2019-01-30T03:26:10.773Z,55.23
2019-01-30T03:26:51.433Z,55.42
2019-01-30T03:27:32.035Z,55.33
2019-01-30T03:28:12.694Z,55.42
2019-01-30T03:28:53.309Z,55.62
2019-01-30T03:29:33.935Z,55.33
2019-01-30T03:30:14.587Z,55.78
2019-01-30T03:30:55.217Z,55.23
2019-01-30T03:31:35.838Z,55.23
2019-01-30T03:32:16.434Z,55.23
2019-01-30T03:32:57.047Z,55.23
2019-01-30T03:33:37.639Z,55.13
2019-01-30T03:34:18.227Z,55.04
2019-01-30T03:34:58.891Z,55.23
2019-01-30T03:35:39.495Z,55.04
2019-01-30T03:36:20.183Z,55.62
2019-01-30T03:37:00.811Z,55.33
2019-01-30T03:37:41.401Z,55.71
2019-01-30T03:38:21.999Z,55.13
2019-01-30T03:39:02.615Z,54.85
2019-01-30T03:39:43.243Z,55.04
2019-01-30T03:40:23.861Z,55.04
2019-01-30T03:41:04.470Z,55.13
2019-01-30T03:41:45.107Z,55.13
2019-01-30T03:42:25.753Z,55.33
2019-01-30T03:43:06.371Z,55.33
2019-01-30T03:43:47.019Z,55.71
2019-01-30T03:44:27.636Z,55.04
2019-01-30T03:45:08.247Z,55.13
2019-01-30T03:45:48.895Z,55.13
2019-01-30T03:46:29.503Z,55.04
2019-01-30T03:47:10.113Z,55.58
2019-01-30T03:47:50.752Z,55.33
2019-01-30T03:48:31.368Z,55.42
2019-01-30T03:49:11.981Z,55.13
2019-01-30T03:49:52.653Z,55.62
2019-01-30T03:50:33.265Z,55.23
2019-01-30T03:51:14.012Z,55.04
2019-01-30T03:51:54.593Z,55.13
2019-01-30T03:52:35.203Z,55.04
2019-01-30T03:53:15.823Z,55.23
2019-01-30T03:53:56.433Z,55.04
2019-01-30T03:54:37.051Z,55.04
2019-01-30T03:55:17.657Z,55.68
2019-01-30T03:55:58.265Z,54.85
2019-01-30T03:56:38.865Z,55.4
2019-01-30T03:57:19.469Z,55.23
2019-01-30T03:58:00.084Z,55.13
2019-01-30T03:58:40.679Z,55.13
2019-01-30T03:59:21.290Z,55.13
2019-01-30T04:00:01.896Z,55.04
2019-01-30T04:00:42.505Z,54.85
2019-01-30T04:01:26.597Z,55.23
2019-01-30T04:02:03.727Z,54.94
2019-01-30T04:02:44.338Z,55.13
2019-01-30T04:03:24.978Z,55.04
2019-01-30T04:04:05.542Z,55.71
2019-01-30T04:04:46.153Z,55.62
2019-01-30T04:05:26.781Z,55.04
2019-01-30T04:06:07.405Z,55.13
2019-01-30T04:06:48.035Z,55.13
2019-01-30T04:07:28.639Z,55.23
2019-01-30T04:08:09.261Z,55.33
2019-01-30T04:08:49.864Z,55.52
2019-01-30T04:09:30.467Z,55.23
2019-01-30T04:10:11.108Z,55.33
2019-01-30T04:10:51.706Z,55.13
2019-01-30T04:11:32.309Z,55.13
2019-01-30T04:12:12.942Z,55.13
2019-01-30T04:12:53.545Z,55.04
2019-01-30T04:13:34.169Z,55.71
2019-01-30T04:14:14.835Z,55.13
2019-01-30T04:14:55.436Z,55.11
2019-01-30T04:15:36.054Z,55.8
2019-01-30T04:16:16.642Z,55.01
2019-01-30T04:16:57.245Z,55.21
2019-01-30T04:17:37.847Z,55.62
2019-01-30T04:18:18.494Z,55.23
2019-01-30T04:18:59.117Z,55.62
2019-01-30T04:19:39.711Z,55.62
2019-01-30T04:20:20.326Z,55.33
2019-01-30T04:21:00.945Z,55.42
2019-01-30T04:21:41.553Z,55.04
2019-01-30T04:22:22.188Z,55.33
2019-01-30T04:23:02.819Z,55.42
2019-01-30T04:23:43.478Z,55.33
2019-01-30T04:24:24.105Z,55.52
2019-01-30T04:25:04.711Z,55.52
2019-01-30T04:25:45.338Z,55.33
2019-01-30T04:26:25.954Z,55.01
2019-01-30T04:27:06.574Z,55.13
2019-01-30T04:27:47.182Z,55.04
2019-01-30T04:28:27.791Z,55.21
2019-01-30T04:29:08.415Z,55.13
2019-01-30T04:29:49.039Z,55.42
2019-01-30T04:30:29.635Z,55.42
2019-01-30T04:31:10.235Z,55.42
2019-01-30T04:31:50.866Z,55.52
2019-01-30T04:32:31.478Z,55.52
2019-01-30T04:33:12.092Z,55.52
2019-01-30T04:33:52.698Z,55.52
2019-01-30T04:34:33.354Z,55.42
2019-01-30T04:35:13.996Z,55.42
2019-01-30T04:35:54.593Z,55.8
2019-01-30T04:36:35.216Z,55.42
2019-01-30T04:37:15.831Z,55.33
2019-01-30T04:37:56.482Z,55.78
2019-01-30T04:38:37.096Z,55.13
2019-01-30T04:39:17.710Z,55.04
2019-01-30T04:39:58.310Z,55.01
2019-01-30T04:40:38.933Z,55.23
2019-01-30T04:41:19.556Z,55.13
2019-01-30T04:42:00.177Z,55.13
2019-01-30T04:42:40.789Z,55.3
2019-01-30T04:43:21.405Z,55.4
2019-01-30T04:44:02.011Z,55.04
2019-01-30T04:44:42.625Z,55.23
2019-01-30T04:45:23.237Z,55.11
2019-01-30T04:46:03.869Z,55.13
2019-01-30T04:46:44.502Z,55.04
2019-01-30T04:47:25.118Z,55.13
2019-01-30T04:48:05.781Z,55.04
2019-01-30T04:48:46.377Z,55.21
2019-01-30T04:49:26.994Z,55.13
2019-01-30T04:50:07.616Z,55.13
2019-01-30T04:50:48.269Z,55.04
2019-01-30T04:51:28.891Z,55.68
2019-01-30T04:52:09.499Z,55.71
2019-01-30T04:52:50.244Z,55.62
2019-01-30T04:53:30.846Z,55.62
2019-01-30T04:54:11.460Z,55.58
2019-01-30T04:54:52.084Z,55.58
2019-01-30T04:55:32.701Z,55.13
2019-01-30T04:56:13.317Z,55.71
2019-01-30T04:56:53.931Z,55.13
2019-01-30T04:57:34.577Z,54.94
2019-01-30T04:58:15.208Z,55.23
2019-01-30T04:58:55.879Z,55.11
2019-01-30T04:59:36.546Z,55.13
2019-01-30T05:00:17.154Z,55.13
2019-01-30T05:00:57.774Z,55.04
2019-01-30T05:01:49.100Z,54.94
2019-01-30T05:02:19.080Z,55.23
2019-01-30T05:02:59.733Z,55.13
2019-01-30T05:03:40.337Z,55.04
2019-01-30T05:04:20.990Z,55.21
2019-01-30T05:05:01.618Z,55.04
2019-01-30T05:05:42.248Z,55.23
2019-01-30T05:06:22.851Z,55.33
2019-01-30T05:07:03.440Z,55.3
2019-01-30T05:07:44.057Z,55.23
2019-01-30T05:08:24.673Z,55.33
2019-01-30T05:09:05.358Z,55.33
2019-01-30T05:09:45.969Z,55.23
2019-01-30T05:10:26.590Z,55.42
2019-01-30T05:11:07.206Z,54.91
2019-01-30T05:11:47.805Z,55.04
2019-01-30T05:12:28.405Z,55.42
2019-01-30T05:13:09.038Z,55.33
2019-01-30T05:13:49.639Z,55.04
2019-01-30T05:14:30.237Z,55.4
2019-01-30T05:15:10.848Z,55.4
2019-01-30T05:15:51.490Z,55.3
2019-01-30T05:16:32.113Z,55.3
2019-01-30T05:17:12.766Z,55.23
2019-01-30T05:17:53.408Z,55.49
2019-01-30T05:18:34.021Z,55.42
2019-01-30T05:19:14.641Z,55.21
2019-01-30T05:19:55.298Z,55.13
2019-01-30T05:20:35.901Z,55.49
2019-01-30T05:21:16.533Z,55.52
2019-01-30T05:21:57.140Z,55.33
2019-01-30T05:22:37.750Z,55.33
2019-01-30T05:23:18.351Z,55.49
2019-01-30T05:23:58.983Z,55.3
2019-01-30T05:24:39.593Z,55.21
2019-01-30T05:25:20.203Z,55.33
2019-01-30T05:26:00.819Z,55.04
2019-01-30T05:26:41.448Z,55.4
2019-01-30T05:27:22.071Z,55.04
2019-01-30T05:28:02.687Z,55.21
2019-01-30T05:28:43.289Z,55.21
2019-01-30T05:29:23.917Z,54.94
2019-01-30T05:30:04.594Z,55.33
2019-01-30T05:30:45.205Z,55.3
2019-01-30T05:31:25.886Z,55.21
2019-01-30T05:32:06.495Z,55.33
2019-01-30T05:32:47.104Z,55.21
2019-01-30T05:33:27.707Z,54.91
2019-01-30T05:34:08.313Z,55.21
2019-01-30T05:34:48.919Z,55.11
2019-01-30T05:35:29.545Z,54.94
2019-01-30T05:36:10.158Z,55.01
2019-01-30T05:36:50.767Z,55.52
2019-01-30T05:37:31.385Z,55.11
2019-01-30T05:38:12.006Z,54.91
2019-01-30T05:38:52.634Z,55.49
2019-01-30T05:39:33.266Z,55.4
2019-01-30T05:40:13.929Z,55.13
2019-01-30T05:40:54.523Z,55.52
2019-01-30T05:41:35.172Z,55.13
2019-01-30T05:42:15.913Z,55.13
2019-01-30T05:42:56.535Z,55.42
2019-01-30T05:43:37.178Z,55.21
2019-01-30T05:44:17.827Z,55.3
2019-01-30T05:44:58.425Z,55.33
2019-01-30T05:45:39.019Z,55.21
2019-01-30T05:46:19.627Z,55.4
2019-01-30T05:47:00.225Z,55.13
2019-01-30T05:47:40.845Z,55.04
2019-01-30T05:48:21.440Z,55.01
2019-01-30T05:49:02.053Z,55.3
2019-01-30T05:49:42.662Z,55.3
2019-01-30T05:50:23.265Z,55.21
2019-01-30T05:51:03.887Z,55.3
2019-01-30T05:51:44.528Z,55.33
2019-01-30T05:52:25.150Z,55.23
2019-01-30T05:53:05.774Z,55.49
2019-01-30T05:53:46.528Z,55.33
2019-01-30T05:54:27.186Z,55.49
2019-01-30T05:55:07.832Z,55.3
2019-01-30T05:55:48.453Z,55.3
2019-01-30T05:56:29.075Z,55.49
2019-01-30T05:57:09.695Z,54.94
2019-01-30T05:57:50.335Z,55.13
2019-01-30T05:59:46.253Z,55.3
2019-01-30T06:00:26.851Z,55.21
2019-01-30T06:01:07.461Z,55.21
2019-01-30T06:01:48.061Z,55.23
2019-01-30T06:02:28.677Z,55.21
2019-01-30T06:03:09.298Z,55.23
2019-01-30T06:03:49.898Z,55.21
2019-01-30T06:04:30.501Z,55.13
2019-01-30T06:05:11.100Z,55.13
2019-01-30T06:05:51.725Z,55.33
2019-01-30T06:06:32.327Z,55.33
2019-01-30T06:07:12.927Z,55.23
2019-01-30T06:07:53.519Z,55.21
2019-01-30T06:08:34.126Z,55.49
2019-01-30T06:09:14.733Z,55.21
2019-01-30T06:09:55.342Z,55.23
2019-01-30T06:10:35.968Z,55.4
2019-01-30T06:11:16.581Z,55.01
2019-01-30T06:11:57.184Z,55.33
2019-01-30T06:12:37.789Z,55.33
2019-01-30T06:13:18.389Z,55.23
2019-01-30T06:13:59.077Z,55.21
2019-01-30T06:14:39.705Z,55.21
2019-01-30T06:15:20.357Z,55.3
2019-01-30T06:16:01.000Z,55.11
2019-01-30T06:16:41.599Z,55.3
2019-01-30T06:17:22.213Z,55.49
2019-01-30T06:18:02.855Z,55.52
2019-01-30T06:18:43.457Z,55.04
2019-01-30T06:19:24.058Z,55.11
2019-01-30T06:20:04.661Z,55.21
2019-01-30T06:20:45.284Z,55.11
2019-01-30T06:21:25.891Z,55.33
2019-01-30T06:22:06.533Z,55.3
2019-01-30T06:22:47.160Z,54.94
2019-01-30T06:23:27.775Z,55.01
2019-01-30T06:24:08.378Z,55.21
2019-01-30T06:24:49.057Z,55.21
2019-01-30T06:25:29.651Z,55.49
2019-01-30T06:26:10.256Z,55.13
2019-01-30T06:26:50.877Z,54.94
2019-01-30T06:27:31.495Z,55.11
2019-01-30T06:28:12.113Z,55.21
2019-01-30T06:28:52.758Z,55.04
2019-01-30T06:29:33.373Z,54.91
2019-01-30T06:30:14.192Z,54.85
2019-01-30T06:30:54.803Z,55.01
2019-01-30T06:31:35.410Z,55.52
2019-01-30T06:32:21.647Z,55.42
2019-01-30T06:32:56.649Z,55.01
2019-01-30T06:33:37.282Z,55.33
2019-01-30T06:34:17.878Z,55.49
2019-01-30T06:34:58.473Z,55.52
2019-01-30T06:35:39.149Z,55.23
2019-01-30T06:36:19.765Z,55.3
2019-01-30T06:37:00.369Z,55.13
2019-01-30T06:37:41.009Z,55.42
2019-01-30T06:38:21.648Z,55.21
2019-01-30T06:39:02.291Z,55.42
2019-01-30T06:39:42.916Z,55.21
2019-01-30T06:40:23.528Z,55.52
2019-01-30T06:41:04.175Z,55.21
2019-01-30T06:41:44.799Z,55.3
2019-01-30T06:42:25.425Z,55.52
2019-01-30T06:43:06.036Z,55.23
2019-01-30T06:43:46.679Z,55.33
2019-01-30T06:44:27.281Z,55.33
2019-01-30T06:45:07.885Z,55.3
2019-01-30T06:45:48.513Z,55.52
2019-01-30T06:46:29.116Z,55.21
2019-01-30T06:47:09.827Z,55.3
2019-01-30T06:47:50.351Z,55.49
2019-01-30T06:48:30.959Z,55.01
2019-01-30T06:49:11.562Z,55.23
2019-01-30T06:49:52.187Z,55.11
2019-01-30T06:50:32.861Z,55.21
2019-01-30T06:51:13.507Z,55.33
2019-01-30T06:51:54.147Z,55.13
2019-01-30T06:52:34.767Z,55.21
2019-01-30T06:53:15.373Z,55.42
2019-01-30T06:53:56.041Z,54.82
2019-01-30T06:54:36.651Z,55.13
2019-01-30T06:55:17.258Z,55.23
2019-01-30T06:55:57.868Z,55.21
2019-01-30T06:56:38.478Z,55.33
2019-01-30T06:57:19.129Z,55.42
2019-01-30T06:57:59.780Z,55.3
2019-01-30T06:58:40.412Z,55.21
2019-01-30T06:59:21.003Z,55.23
2019-01-30T07:00:01.677Z,54.91
2019-01-30T07:00:42.249Z,55.21
2019-01-30T07:01:22.873Z,55.42
2019-01-30T07:02:03.502Z,55.3
2019-01-30T07:02:44.129Z,55.33
2019-01-30T07:03:24.815Z,55.13
2019-01-30T07:04:05.401Z,55.11
2019-01-30T07:04:46.016Z,55.13
2019-01-30T07:05:26.702Z,55.52
2019-01-30T07:06:07.820Z,55.23
2019-01-30T07:06:47.973Z,55.23
2019-01-30T07:07:28.620Z,55.33
2019-01-30T07:08:09.218Z,55.33
2019-01-30T07:08:49.818Z,55.3
2019-01-30T07:09:30.436Z,54.85
2019-01-30T07:10:11.031Z,55.11
2019-01-30T07:10:51.642Z,55.13
2019-01-30T07:11:32.275Z,55.01
2019-01-30T07:12:12.894Z,54.94
2019-01-30T07:12:53.500Z,55.21
2019-01-30T07:13:34.137Z,55.11
2019-01-30T07:14:14.743Z,55.11
2019-01-30T07:14:55.346Z,54.94
2019-01-30T07:15:35.994Z,55.52
2019-01-30T07:16:16.632Z,55.13
2019-01-30T07:16:57.248Z,55.4
2019-01-30T07:17:37.850Z,55.49
2019-01-30T07:18:18.450Z,55.52
2019-01-30T07:18:59.062Z,55.52
2019-01-30T07:19:39.700Z,55.21
2019-01-30T07:20:20.305Z,54.94
2019-01-30T07:21:00.912Z,55.52
2019-01-30T07:21:41.536Z,54.91
2019-01-30T07:22:22.150Z,55.21
2019-01-30T07:23:02.766Z,55.33
2019-01-30T07:23:43.396Z,55.33
2019-01-30T07:24:24.010Z,55.3
2019-01-30T07:25:04.651Z,55.01
2019-01-30T07:25:45.299Z,55.23
2019-01-30T07:26:25.938Z,55.13
2019-01-30T07:27:06.540Z,55.33
2019-01-30T07:27:47.162Z,55.33
2019-01-30T07:28:27.778Z,55.42
2019-01-30T07:29:08.408Z,54.91
2019-01-30T07:29:49.028Z,55.13
2019-01-30T07:30:29.644Z,55.01
2019-01-30T07:31:10.252Z,54.91
2019-01-30T07:31:50.867Z,55.01
2019-01-30T07:32:31.476Z,55.04
2019-01-30T07:33:12.091Z,55.23
2019-01-30T07:33:52.706Z,55.52
2019-01-30T07:34:33.308Z,55.23
2019-01-30T07:35:13.912Z,55.01
2019-01-30T07:35:54.524Z,55.21
2019-01-30T07:36:35.121Z,55.49
2019-01-30T07:37:15.726Z,55.3
2019-01-30T07:37:58.589Z,55.3
2019-01-30T07:38:36.932Z,55.01
2019-01-30T07:39:17.593Z,55.4
2019-01-30T07:39:58.188Z,55.33
2019-01-30T07:40:38.814Z,54.91
2019-01-30T07:41:19.452Z,54.94
2019-01-30T07:42:00.104Z,55.01
2019-01-30T07:42:40.739Z,55.04
2019-01-30T07:43:22.906Z,54.75
2019-01-30T07:44:01.999Z,55.11
2019-01-30T07:44:50.410Z,54.94
2019-01-30T07:45:23.201Z,55.04
2019-01-30T07:46:03.834Z,55.01
2019-01-30T07:46:44.428Z,55.21
2019-01-30T07:47:25.050Z,55.21
2019-01-30T07:48:05.692Z,55.21
2019-01-30T07:48:46.296Z,54.91
2019-01-30T07:49:26.921Z,54.75
2019-01-30T07:50:07.544Z,55.04
2019-01-30T07:50:48.208Z,54.91
2019-01-30T07:51:28.830Z,54.91
2019-01-30T07:52:09.431Z,54.94
2019-01-30T07:52:50.027Z,55.21
2019-01-30T07:53:30.645Z,55.11
2019-01-30T07:54:11.270Z,55.52
2019-01-30T07:54:51.877Z,55.13
2019-01-30T07:55:32.482Z,54.94
2019-01-30T07:56:13.088Z,55.11
2019-01-30T07:56:53.699Z,55.33
2019-01-30T07:57:34.300Z,55.11
2019-01-30T07:58:14.921Z,55.11
2019-01-30T07:58:55.527Z,54.91
2019-01-30T07:59:36.136Z,55.11
2019-01-30T08:00:17.868Z,54.94
2019-01-30T08:00:57.382Z,54.94
2019-01-30T08:01:38.005Z,55.04
2019-01-30T08:02:18.606Z,55.04
2019-01-30T08:02:59.264Z,55.23
2019-01-30T08:03:39.913Z,54.91
2019-01-30T08:04:20.518Z,55.11
2019-01-30T08:05:01.120Z,55.11
2019-01-30T08:05:41.736Z,55.21
2019-01-30T08:06:22.350Z,55.21
2019-01-30T08:07:03.190Z,55.13
2019-01-30T08:07:43.579Z,55.21
2019-01-30T08:08:24.174Z,55.11
2019-01-30T08:09:04.810Z,54.82
2019-01-30T08:09:45.454Z,55.11
2019-01-30T08:10:26.090Z,54.91
2019-01-30T08:11:07.362Z,55.04
2019-01-30T08:11:47.316Z,55.04
2019-01-30T08:12:27.932Z,54.82
2019-01-30T08:13:08.536Z,55.04
2019-01-30T08:13:49.140Z,54.94
2019-01-30T08:14:29.772Z,54.94
2019-01-30T08:15:10.368Z,55.01
2019-01-30T08:15:50.967Z,55.04
2019-01-30T08:16:31.625Z,55.23
2019-01-30T08:17:12.208Z,55.01
2019-01-30T08:17:52.805Z,54.94
2019-01-30T08:18:33.517Z,54.94
2019-01-30T08:19:14.055Z,55.04
2019-01-30T08:19:54.674Z,54.94
2019-01-30T08:20:35.265Z,54.82
2019-01-30T08:21:15.888Z,54.85
2019-01-30T08:21:56.510Z,54.85
2019-01-30T08:22:37.122Z,54.94
2019-01-30T08:23:17.714Z,54.75
2019-01-30T08:23:58.796Z,54.94
2019-01-30T08:24:39.408Z,54.85
2019-01-30T08:25:19.929Z,55.04
2019-01-30T08:26:00.230Z,54.94
2019-01-30T08:26:40.923Z,54.75
2019-01-30T08:27:21.495Z,55.04
2019-01-30T08:28:02.232Z,54.75
2019-01-30T08:28:42.810Z,54.85
2019-01-30T08:29:23.800Z,54.94
2019-01-30T08:30:04.003Z,55.04
2019-01-30T08:30:44.611Z,55.01
2019-01-30T08:31:25.202Z,54.85
2019-01-30T08:32:05.798Z,54.85
2019-01-30T08:32:46.578Z,55.04
2019-01-30T08:33:27.024Z,54.94
2019-01-30T08:34:07.623Z,55.01
2019-01-30T08:34:48.261Z,54.72
2019-01-30T08:35:28.885Z,54.66
2019-01-30T08:36:09.476Z,54.44
2019-01-30T08:36:50.069Z,54.56
2019-01-30T08:37:30.680Z,54.72
2019-01-30T08:38:11.288Z,54.82
2019-01-30T08:38:51.926Z,54.46
2019-01-30T08:39:32.556Z,54.34
2019-01-30T08:40:13.189Z,54.44
2019-01-30T08:40:53.798Z,54.44
2019-01-30T08:41:34.399Z,54.82
2019-01-30T08:42:15.000Z,54.46
2019-01-30T08:42:55.625Z,54.66
2019-01-30T08:43:36.217Z,54.63
2019-01-30T08:44:16.848Z,54.82
2019-01-30T08:44:57.450Z,54.66
2019-01-30T08:45:38.049Z,54.56
2019-01-30T08:46:18.662Z,54.44
2019-01-30T08:46:59.301Z,54.63
2019-01-30T08:47:39.944Z,54.53